INGA4: Red River, Index, AR

                                SHEF ID:       INGA4     Red River at Index, AR
STATION TYPE: Stream Gauge
Regulating: Stage = 19.80, Flow = 104273

PRECIP STAGE RIV-FLOW WTR-TEMP BAT-LOAD
in ft cfs F volt
Ccp-Rev Ccp-Rev Ccp-Rev Ccp-Rev Ccp-Rev
(America/Chicago)
03/23 00:00 0.00 0.88 3054 70.92 12.70
03/23 01:00 0.00 0.86 2999 70.83 12.67
03/23 02:00 0.00 0.84 2944 70.66 12.67
03/23 03:00 0.00 0.83 2917 70.48 12.64
03/23 04:00 0.00 0.82 2890 70.34 12.63
03/23 05:00 0.00 0.80 2836 70.20 12.61
03/23 06:00 0.00 0.79 2809 70.03 12.60
03/23 07:00 0.00 0.78 2782 69.80 12.59
03/23 08:00 0.00 0.78 2782 69.53 12.57
03/23 09:00 0.00 0.79 2809 69.31 12.94
03/23 10:00 0.00 0.78 2782 69.19 13.72
03/23 11:00 0.00 0.76 2729 69.15 13.65
03/23 12:00 0.00 0.76 2729 69.30 13.58
03/23 13:00 0.00 0.75 2702 69.53 13.53
03/23 14:00 0.00 0.73 2649 69.66 13.49
03/23 15:00 0.00 0.72 2622 69.73 13.44
03/23 16:00 0.00 0.71 2596 69.82 13.42
03/23 17:00 0.00 0.70 2570 69.91 13.36
03/23 18:00 0.00 0.69 2543 69.96 13.31
03/23 19:00 0.00 0.68 2517 70.02 13.28
03/23 20:00 0.00 0.67 2491 70.03 13.09
03/23 21:00 0.00 0.66 2465 70.03 12.78
03/23 22:00 0.00 0.65 2439 69.96 12.71
03/23 23:00 0.00 0.64 2413 69.85 12.70
Data processed at Tue 24Mar2026 04:11 GMT

NOTICE: If you are parsing this page

Please convert to using our Data API. Starting early 2026 we will be migrating to: https://water.usace.army.mil with modern pages rendered in JavaScript. When this migration completes you will no longer be able to scrape this page! CWMSDataAPI (CDA)

Timeseries IDs (TSIDs)

TSIDs used from left to right in the data table
INDX.Precip-Inc.Total.1Hour.1Hour.Ccp-Rev
INDX.Stage.Inst.1Hour.0.Ccp-Rev
INDX.Flow.Inst.1Hour.0.Ccp-Rev
INDX.Temp-Water.Inst.1Hour.0.Ccp-Rev
INDX.Volt-Battery Load.Inst.1Hour.0.Ccp-Rev

                            

All information presented herein is the property of the government of the United States of America and may be revised or deleted at any time without prior notice. Dissemination of this information without the expressed written consent of the Public Affairs Office, Tulsa District U.S. Army Corps of Engineers is strictly prohibited. These data are gathered electronically and, as presented, have NOT undergone any form of quality control. These data are NOT guaranteed to be valid or correct.